sensor_id;sensor_type;location;lat;lon;timestamp;noise_LAeq;noise_LA_min;noise_LA_max;noise_LA01;noise_LA95
67314;Laerm;57663;51.436;5.978;2022-08-30T00:00:14;40.77;37.57;49.00;;
67314;Laerm;57663;51.436;5.978;2022-08-30T00:00:48;70.26;39.34;82.45;;
67314;Laerm;57663;51.436;5.978;2022-08-30T00:01:24;62.28;38.31;73.33;;
67314;Laerm;57663;51.436;5.978;2022-08-30T00:01:35;67.66;40.76;76.76;;
67314;Laerm;57663;51.436;5.978;2022-08-30T00:01:46;64.20;44.65;69.34;;
67314;Laerm;57663;51.436;5.978;2022-08-30T00:01:57;41.97;38.26;47.76;;
67314;Laerm;57663;51.436;5.978;2022-08-30T00:02:07;39.53;38.10;46.65;;
67314;Laerm;57663;51.436;5.978;2022-08-30T00:02:18;39.00;37.55;46.37;;
67314;Laerm;57663;51.436;5.978;2022-08-30T00:02:29;38.91;37.16;45.71;;
67314;Laerm;57663;51.436;5.978;2022-08-30T00:02:40;38.86;37.39;45.71;;
67314;Laerm;57663;51.436;5.978;2022-08-30T00:02:50;38.68;37.25;46.07;;
67314;Laerm;57663;51.436;5.978;2022-08-30T00:03:00;38.99;37.28;46.23;;
67314;Laerm;57663;51.436;5.978;2022-08-30T00:03:11;39.00;37.66;46.86;;
67314;Laerm;57663;51.436;5.978;2022-08-30T00:03:23;38.88;37.14;46.67;;
67314;Laerm;57663;51.436;5.978;2022-08-30T00:03:35;38.77;37.19;46.04;;
67314;Laerm;57663;51.436;5.978;2022-08-30T00:03:46;38.64;37.04;45.15;;
67314;Laerm;57663;51.436;5.978;2022-08-30T00:03:56;38.65;37.16;45.84;;
67314;Laerm;57663;51.436;5.978;2022-08-30T00:04:07;38.68;37.17;46.16;;
67314;Laerm;57663;51.436;5.978;2022-08-30T00:04:17;38.58;36.89;46.24;;
67314;Laerm;57663;51.436;5.978;2022-08-30T00:04:28;38.78;37.34;46.68;;
67314;Laerm;57663;51.436;5.978;2022-08-30T00:04:38;38.62;37.17;46.30;;
67314;Laerm;57663;51.436;5.978;2022-08-30T00:04:48;38.61;37.17;46.07;;
67314;Laerm;57663;51.436;5.978;2022-08-30T00:04:59;38.65;36.96;46.07;;
67314;Laerm;57663;51.436;5.978;2022-08-30T00:05:10;38.90;37.29;46.51;;
67314;Laerm;57663;51.436;5.978;2022-08-30T00:05:22;38.72;37.02;46.44;;
67314;Laerm;57663;51.436;5.978;2022-08-30T00:05:33;38.60;37.01;46.09;;
67314;Laerm;57663;51.436;5.978;2022-08-30T00:05:43;38.59;37.05;46.22;;
67314;Laerm;57663;51.436;5.978;2022-08-30T00:05:53;38.83;37.46;45.85;;
67314;Laerm;57663;51.436;5.978;2022-08-30T00:06:04;38.74;37.32;46.73;;
67314;Laerm;57663;51.436;5.978;2022-08-30T00:06:18;39.05;37.48;45.92;;
67314;Laerm;57663;51.436;5.978;2022-08-30T00:06:28;38.92;37.53;46.71;;
67314;Laerm;57663;51.436;5.978;2022-08-30T00:06:39;38.68;37.19;46.17;;
67314;Laerm;57663;51.436;5.978;2022-08-30T00:06:49;38.65;36.93;46.27;;
67314;Laerm;57663;51.436;5.978;2022-08-30T00:06:59;38.49;37.09;45.40;;
67314;Laerm;57663;51.436;5.978;2022-08-30T00:07:12;38.75;37.43;46.53;;
67314;Laerm;57663;51.436;5.978;2022-08-30T00:07:23;38.86;37.10;45.45;;
67314;Laerm;57663;51.436;5.978;2022-08-30T00:07:34;38.57;36.87;45.75;;
67314;Laerm;57663;51.436;5.978;2022-08-30T00:07:44;38.52;37.04;46.20;;
67314;Laerm;57663;51.436;5.978;2022-08-30T00:07:55;38.65;36.88;45.52;;
67314;Laerm;57663;51.436;5.978;2022-08-30T00:08:06;38.57;37.08;46.11;;
67314;Laerm;57663;51.436;5.978;2022-08-30T00:08:17;38.55;36.81;45.82;;
67314;Laerm;57663;51.436;5.978;2022-08-30T00:08:27;39.18;37.39;46.63;;
67314;Laerm;57663;51.436;5.978;2022-08-30T00:08:38;39.36;37.57;46.01;;
67314;Laerm;57663;51.436;5.978;2022-08-30T00:08:50;39.62;37.95;46.65;;
67314;Laerm;57663;51.436;5.978;2022-08-30T00:09:00;40.56;37.25;48.02;;
67314;Laerm;57663;51.436;5.978;2022-08-30T00:09:11;64.76;43.41;71.44;;
67314;Laerm;57663;51.436;5.978;2022-08-30T00:09:22;67.21;63.29;70.85;;
67314;Laerm;57663;51.436;5.978;2022-08-30T00:09:32;65.11;54.25;69.70;;
67314;Laerm;57663;51.436;5.978;2022-08-30T00:09:42;45.80;39.50;56.30;;
67314;Laerm;57663;51.436;5.978;2022-08-30T00:09:52;41.26;37.56;57.60;;
67314;Laerm;57663;51.436;5.978;2022-08-30T00:10:04;39.80;38.34;46.01;;
67314;Laerm;57663;51.436;5.978;2022-08-30T00:10:15;42.24;37.68;59.19;;
67314;Laerm;57663;51.436;5.978;2022-08-30T00:10:26;39.53;38.14;45.99;;
67314;Laerm;57663;51.436;5.978;2022-08-30T00:10:38;39.53;37.67;45.44;;
67314;Laerm;57663;51.436;5.978;2022-08-30T00:10:49;40.02;38.03;45.79;;
67314;Laerm;57663;51.436;5.978;2022-08-30T00:11:00;64.43;39.02;73.68;;
67314;Laerm;57663;51.436;5.978;2022-08-30T00:11:12;65.91;63.05;70.69;;
67314;Laerm;57663;51.436;5.978;2022-08-30T00:11:24;68.38;63.07;75.60;;
67314;Laerm;57663;51.436;5.978;2022-08-30T00:11:36;64.93;39.48;77.54;;
67314;Laerm;57663;51.436;5.978;2022-08-30T00:11:46;39.35;37.73;45.77;;
67314;Laerm;57663;51.436;5.978;2022-08-30T00:11:56;39.33;37.46;47.92;;
67314;Laerm;57663;51.436;5.978;2022-08-30T00:12:07;38.91;37.63;45.89;;
67314;Laerm;57663;51.436;5.978;2022-08-30T00:12:18;38.75;37.32;45.79;;
67314;Laerm;57663;51.436;5.978;2022-08-30T00:12:30;38.93;36.98;46.31;;
67314;Laerm;57663;51.436;5.978;2022-08-30T00:12:41;38.69;37.17;45.61;;
67314;Laerm;57663;51.436;5.978;2022-08-30T00:12:52;38.77;37.34;46.92;;
67314;Laerm;57663;51.436;5.978;2022-08-30T00:13:03;38.64;37.03;45.82;;
67314;Laerm;57663;51.436;5.978;2022-08-30T00:13:13;38.69;36.94;45.91;;
67314;Laerm;57663;51.436;5.978;2022-08-30T00:13:24;38.77;37.12;46.65;;
67314;Laerm;57663;51.436;5.978;2022-08-30T00:13:35;38.71;37.23;45.96;;
67314;Laerm;57663;51.436;5.978;2022-08-30T00:13:46;39.23;37.84;46.88;;
67314;Laerm;57663;51.436;5.978;2022-08-30T00:13:58;38.97;37.49;46.06;;
67314;Laerm;57663;51.436;5.978;2022-08-30T00:14:09;38.89;37.45;46.08;;
67314;Laerm;57663;51.436;5.978;2022-08-30T00:14:19;38.58;37.36;46.59;;
67314;Laerm;57663;51.436;5.978;2022-08-30T00:14:29;38.69;37.21;46.93;;
67314;Laerm;57663;51.436;5.978;2022-08-30T00:14:40;38.78;37.17;45.87;;
67314;Laerm;57663;51.436;5.978;2022-08-30T00:14:50;38.52;37.10;46.35;;
67314;Laerm;57663;51.436;5.978;2022-08-30T00:15:00;38.40;36.98;46.01;;
67314;Laerm;57663;51.436;5.978;2022-08-30T00:15:12;38.68;37.16;46.79;;
67314;Laerm;57663;51.436;5.978;2022-08-30T00:15:23;38.66;37.23;46.44;;
67314;Laerm;57663;51.436;5.978;2022-08-30T00:15:33;38.83;37.49;44.68;;
67314;Laerm;57663;51.436;5.978;2022-08-30T00:15:44;38.84;37.55;46.42;;
67314;Laerm;57663;51.436;5.978;2022-08-30T00:15:54;38.92;37.44;45.98;;
67314;Laerm;57663;51.436;5.978;2022-08-30T00:16:05;38.48;37.32;39.64;;
67314;Laerm;57663;51.436;5.978;2022-08-30T00:16:19;38.78;37.21;46.59;;
67314;Laerm;57663;51.436;5.978;2022-08-30T00:16:30;38.62;36.95;45.22;;
67314;Laerm;57663;51.436;5.978;2022-08-30T00:16:40;39.03;37.22;45.73;;
67314;Laerm;57663;51.436;5.978;2022-08-30T00:16:51;39.04;37.14;46.73;;
67314;Laerm;57663;51.436;5.978;2022-08-30T00:17:01;38.85;37.28;46.46;;
67314;Laerm;57663;51.436;5.978;2022-08-30T00:17:11;38.81;37.21;45.42;;
67314;Laerm;57663;51.436;5.978;2022-08-30T00:17:21;38.56;37.08;47.23;;
67314;Laerm;57663;51.436;5.978;2022-08-30T00:17:32;38.61;37.12;46.66;;
67314;Laerm;57663;51.436;5.978;2022-08-30T00:17:42;38.73;37.31;45.53;;
67314;Laerm;57663;51.436;5.978;2022-08-30T00:17:53;38.75;37.07;46.46;;
67314;Laerm;57663;51.436;5.978;2022-08-30T00:18:03;39.15;37.63;46.42;;
67314;Laerm;57663;51.436;5.978;2022-08-30T00:18:14;39.30;37.61;45.43;;
67314;Laerm;57663;51.436;5.978;2022-08-30T00:18:27;39.59;37.86;46.56;;
67314;Laerm;57663;51.436;5.978;2022-08-30T00:18:37;41.81;37.68;47.18;;
67314;Laerm;57663;51.436;5.978;2022-08-30T00:18:47;70.91;45.90;80.09;;
67314;Laerm;57663;51.436;5.978;2022-08-30T00:18:58;66.55;63.40;71.76;;
67314;Laerm;57663;51.436;5.978;2022-08-30T00:19:08;63.89;45.16;72.50;;
67314;Laerm;57663;51.436;5.978;2022-08-30T00:19:18;41.91;39.09;46.49;;
67314;Laerm;57663;51.436;5.978;2022-08-30T00:19:29;40.29;38.83;46.03;;
67314;Laerm;57663;51.436;5.978;2022-08-30T00:19:40;39.41;37.95;46.79;;
67314;Laerm;57663;51.436;5.978;2022-08-30T00:19:50;39.05;37.87;40.34;;
67314;Laerm;57663;51.436;5.978;2022-08-30T00:20:02;38.83;37.46;45.42;;
67314;Laerm;57663;51.436;5.978;2022-08-30T00:20:14;39.43;37.75;46.72;;
67314;Laerm;57663;51.436;5.978;2022-08-30T00:20:28;39.17;37.35;45.55;;
67314;Laerm;57663;51.436;5.978;2022-08-30T00:20:40;39.00;37.38;46.37;;
67314;Laerm;57663;51.436;5.978;2022-08-30T00:20:50;38.87;37.32;46.17;;
67314;Laerm;57663;51.436;5.978;2022-08-30T00:21:01;38.76;37.15;45.48;;
67314;Laerm;57663;51.436;5.978;2022-08-30T00:21:12;38.60;37.12;46.17;;
67314;Laerm;57663;51.436;5.978;2022-08-30T00:21:24;38.95;37.61;46.03;;
67314;Laerm;57663;51.436;5.978;2022-08-30T00:21:36;39.07;37.16;46.41;;
67314;Laerm;57663;51.436;5.978;2022-08-30T00:21:48;43.61;38.07;52.91;;
67314;Laerm;57663;51.436;5.978;2022-08-30T00:21:58;70.39;50.84;75.06;;
67314;Laerm;57663;51.436;5.978;2022-08-30T00:22:09;69.62;66.72;73.42;;
67314;Laerm;57663;51.436;5.978;2022-08-30T00:22:19;64.70;43.83;70.18;;
67314;Laerm;57663;51.436;5.978;2022-08-30T00:22:29;41.41;39.31;47.00;;
67314;Laerm;57663;51.436;5.978;2022-08-30T00:22:42;40.17;38.52;46.69;;
67314;Laerm;57663;51.436;5.978;2022-08-30T00:22:52;39.32;38.07;45.75;;
67314;Laerm;57663;51.436;5.978;2022-08-30T00:23:03;39.26;37.58;47.17;;
67314;Laerm;57663;51.436;5.978;2022-08-30T00:23:14;38.84;37.40;46.38;;
67314;Laerm;57663;51.436;5.978;2022-08-30T00:23:24;38.70;37.12;45.82;;
67314;Laerm;57663;51.436;5.978;2022-08-30T00:23:36;38.82;37.53;46.04;;
67314;Laerm;57663;51.436;5.978;2022-08-30T00:23:46;38.91;37.25;46.97;;
67314;Laerm;57663;51.436;5.978;2022-08-30T00:23:56;39.33;37.52;46.17;;
67314;Laerm;57663;51.436;5.978;2022-08-30T00:24:07;38.90;37.48;45.47;;
67314;Laerm;57663;51.436;5.978;2022-08-30T00:24:17;38.84;37.17;45.82;;
67314;Laerm;57663;51.436;5.978;2022-08-30T00:24:27;38.75;37.23;46.16;;
67314;Laerm;57663;51.436;5.978;2022-08-30T00:24:38;38.78;36.92;45.51;;
67314;Laerm;57663;51.436;5.978;2022-08-30T00:24:48;38.58;37.09;45.99;;
67314;Laerm;57663;51.436;5.978;2022-08-30T00:24:59;38.92;37.58;45.99;;
67314;Laerm;57663;51.436;5.978;2022-08-30T00:25:12;38.59;37.14;46.02;;
67314;Laerm;57663;51.436;5.978;2022-08-30T00:25:23;38.72;37.11;45.99;;
67314;Laerm;57663;51.436;5.978;2022-08-30T00:25:34;38.63;37.22;46.24;;
67314;Laerm;57663;51.436;5.978;2022-08-30T00:25:44;38.54;36.88;45.80;;
67314;Laerm;57663;51.436;5.978;2022-08-30T00:25:54;38.88;37.35;46.20;;
67314;Laerm;57663;51.436;5.978;2022-08-30T00:26:05;38.70;37.18;47.00;;
67314;Laerm;57663;51.436;5.978;2022-08-30T00:26:16;38.78;37.14;46.65;;
67314;Laerm;57663;51.436;5.978;2022-08-30T00:26:26;39.10;37.26;46.16;;
67314;Laerm;57663;51.436;5.978;2022-08-30T00:26:37;39.27;37.67;46.48;;
67314;Laerm;57663;51.436;5.978;2022-08-30T00:26:47;39.42;37.68;46.92;;
67314;Laerm;57663;51.436;5.978;2022-08-30T00:26:57;41.06;37.85;47.29;;
67314;Laerm;57663;51.436;5.978;2022-08-30T00:27:07;66.20;46.14;71.27;;
67314;Laerm;57663;51.436;5.978;2022-08-30T00:27:18;67.17;63.49;70.66;;
67314;Laerm;57663;51.436;5.978;2022-08-30T00:27:28;68.90;65.54;73.89;;
67314;Laerm;57663;51.436;5.978;2022-08-30T00:27:39;62.60;41.78;73.16;;
67314;Laerm;57663;51.436;5.978;2022-08-30T00:27:51;42.41;40.13;46.97;;
67314;Laerm;57663;51.436;5.978;2022-08-30T00:28:01;40.97;39.20;46.11;;
67314;Laerm;57663;51.436;5.978;2022-08-30T00:28:12;40.46;38.64;47.22;;
67314;Laerm;57663;51.436;5.978;2022-08-30T00:28:23;40.35;38.65;46.19;;
67314;Laerm;57663;51.436;5.978;2022-08-30T00:28:33;39.80;38.02;46.29;;
67314;Laerm;57663;51.436;5.978;2022-08-30T00:28:43;39.39;37.75;46.67;;
67314;Laerm;57663;51.436;5.978;2022-08-30T00:28:54;39.01;37.70;45.53;;
67314;Laerm;57663;51.436;5.978;2022-08-30T00:29:04;39.14;37.26;47.62;;
67314;Laerm;57663;51.436;5.978;2022-08-30T00:29:14;39.38;37.40;46.45;;
67314;Laerm;57663;51.436;5.978;2022-08-30T00:29:25;39.46;37.68;45.58;;
67314;Laerm;57663;51.436;5.978;2022-08-30T00:29:35;39.23;37.47;46.29;;
67314;Laerm;57663;51.436;5.978;2022-08-30T00:29:45;39.63;37.60;46.39;;
67314;Laerm;57663;51.436;5.978;2022-08-30T00:29:56;39.30;37.33;46.00;;
67314;Laerm;57663;51.436;5.978;2022-08-30T00:30:06;38.53;36.94;45.55;;
67314;Laerm;57663;51.436;5.978;2022-08-30T00:30:17;38.55;36.65;45.77;;
67314;Laerm;57663;51.436;5.978;2022-08-30T00:30:28;38.78;37.37;45.18;;
67314;Laerm;57663;51.436;5.978;2022-08-30T00:30:39;38.77;37.23;47.36;;
67314;Laerm;57663;51.436;5.978;2022-08-30T00:30:49;38.81;37.25;46.45;;
67314;Laerm;57663;51.436;5.978;2022-08-30T00:31:00;38.84;37.55;46.87;;
67314;Laerm;57663;51.436;5.978;2022-08-30T00:31:11;38.70;37.25;45.48;;
67314;Laerm;57663;51.436;5.978;2022-08-30T00:31:21;38.72;36.86;45.37;;
67314;Laerm;57663;51.436;5.978;2022-08-30T00:31:31;38.83;37.25;45.92;;
67314;Laerm;57663;51.436;5.978;2022-08-30T00:31:42;38.70;37.05;46.60;;
67314;Laerm;57663;51.436;5.978;2022-08-30T00:31:52;39.00;37.34;45.49;;
67314;Laerm;57663;51.436;5.978;2022-08-30T00:32:02;39.73;37.71;47.55;;
67314;Laerm;57663;51.436;5.978;2022-08-30T00:32:13;39.26;37.15;46.71;;
67314;Laerm;57663;51.436;5.978;2022-08-30T00:32:25;38.79;37.11;46.67;;
67314;Laerm;57663;51.436;5.978;2022-08-30T00:32:36;38.90;37.44;46.81;;
67314;Laerm;57663;51.436;5.978;2022-08-30T00:32:46;38.72;37.06;46.09;;
67314;Laerm;57663;51.436;5.978;2022-08-30T00:32:56;38.77;37.04;46.41;;
67314;Laerm;57663;51.436;5.978;2022-08-30T00:33:08;39.00;37.43;45.45;;
67314;Laerm;57663;51.436;5.978;2022-08-30T00:33:18;39.04;37.53;45.22;;
67314;Laerm;57663;51.436;5.978;2022-08-30T00:33:29;39.35;37.67;45.29;;
67314;Laerm;57663;51.436;5.978;2022-08-30T00:33:39;55.68;38.67;69.27;;
67314;Laerm;57663;51.436;5.978;2022-08-30T00:33:49;66.20;62.46;72.77;;
67314;Laerm;57663;51.436;5.978;2022-08-30T00:34:00;65.36;62.78;68.68;;
67314;Laerm;57663;51.436;5.978;2022-08-30T00:34:10;62.92;43.88;67.36;;
67314;Laerm;57663;51.436;5.978;2022-08-30T00:34:20;41.55;38.71;46.96;;
67314;Laerm;57663;51.436;5.978;2022-08-30T00:34:31;39.29;37.08;45.29;;
67314;Laerm;57663;51.436;5.978;2022-08-30T00:34:41;38.89;37.52;46.42;;
67314;Laerm;57663;51.436;5.978;2022-08-30T00:34:52;39.02;37.48;46.66;;
67314;Laerm;57663;51.436;5.978;2022-08-30T00:35:03;38.76;37.20;45.68;;
67314;Laerm;57663;51.436;5.978;2022-08-30T00:35:15;38.77;37.23;46.26;;
67314;Laerm;57663;51.436;5.978;2022-08-30T00:35:26;38.71;37.13;46.05;;
67314;Laerm;57663;51.436;5.978;2022-08-30T00:35:36;38.86;37.47;45.95;;
67314;Laerm;57663;51.436;5.978;2022-08-30T00:35:48;38.98;37.32;45.77;;
67314;Laerm;57663;51.436;5.978;2022-08-30T00:35:59;39.08;37.38;46.78;;
67314;Laerm;57663;51.436;5.978;2022-08-30T00:36:09;39.17;37.49;46.92;;
67314;Laerm;57663;51.436;5.978;2022-08-30T00:36:19;39.02;37.40;46.33;;
67314;Laerm;57663;51.436;5.978;2022-08-30T00:36:30;39.10;37.76;45.92;;
67314;Laerm;57663;51.436;5.978;2022-08-30T00:36:40;54.94;38.05;64.11;;
67314;Laerm;57663;51.436;5.978;2022-08-30T00:36:51;51.44;38.05;61.41;;
67314;Laerm;57663;51.436;5.978;2022-08-30T00:37:01;39.19;37.55;45.91;;
67314;Laerm;57663;51.436;5.978;2022-08-30T00:37:11;39.01;37.53;45.69;;
67314;Laerm;57663;51.436;5.978;2022-08-30T00:37:22;38.84;37.36;46.86;;
67314;Laerm;57663;51.436;5.978;2022-08-30T00:37:32;38.88;37.29;45.89;;
67314;Laerm;57663;51.436;5.978;2022-08-30T00:37:43;38.55;37.28;45.93;;
67314;Laerm;57663;51.436;5.978;2022-08-30T00:37:53;38.18;36.72;45.26;;
67314;Laerm;57663;51.436;5.978;2022-08-30T00:38:03;38.47;36.73;46.16;;
67314;Laerm;57663;51.436;5.978;2022-08-30T00:38:14;38.56;37.25;46.06;;
67314;Laerm;57663;51.436;5.978;2022-08-30T00:38:24;38.65;36.74;45.79;;
67314;Laerm;57663;51.436;5.978;2022-08-30T00:38:35;38.62;37.07;46.03;;
67314;Laerm;57663;51.436;5.978;2022-08-30T00:38:45;38.70;37.01;45.77;;
67314;Laerm;57663;51.436;5.978;2022-08-30T00:38:55;38.63;37.35;45.86;;
67314;Laerm;57663;51.436;5.978;2022-08-30T00:39:06;38.30;36.65;46.14;;
67314;Laerm;57663;51.436;5.978;2022-08-30T00:39:16;38.31;36.78;46.16;;
67314;Laerm;57663;51.436;5.978;2022-08-30T00:39:26;38.39;36.58;44.72;;
67314;Laerm;57663;51.436;5.978;2022-08-30T00:39:37;38.83;37.28;46.36;;
67314;Laerm;57663;51.436;5.978;2022-08-30T00:39:47;39.07;37.48;45.90;;
67314;Laerm;57663;51.436;5.978;2022-08-30T00:39:57;38.92;37.40;46.06;;
67314;Laerm;57663;51.436;5.978;2022-08-30T00:40:08;38.77;37.17;46.61;;
67314;Laerm;57663;51.436;5.978;2022-08-30T00:40:21;38.57;36.93;46.27;;
67314;Laerm;57663;51.436;5.978;2022-08-30T00:40:31;38.66;36.86;45.50;;
67314;Laerm;57663;51.436;5.978;2022-08-30T00:40:43;38.51;36.95;46.19;;
67314;Laerm;57663;51.436;5.978;2022-08-30T00:40:53;38.37;37.06;47.09;;
67314;Laerm;57663;51.436;5.978;2022-08-30T00:41:04;38.71;37.04;46.60;;
67314;Laerm;57663;51.436;5.978;2022-08-30T00:41:14;39.05;37.07;46.04;;
67314;Laerm;57663;51.436;5.978;2022-08-30T00:41:24;38.85;37.05;45.91;;
67314;Laerm;57663;51.436;5.978;2022-08-30T00:41:35;39.24;37.41;46.79;;
67314;Laerm;57663;51.436;5.978;2022-08-30T00:41:46;62.91;39.32;70.09;;
67314;Laerm;57663;51.436;5.978;2022-08-30T00:41:57;67.61;64.06;73.40;;
67314;Laerm;57663;51.436;5.978;2022-08-30T00:42:08;67.39;50.34;71.68;;
67314;Laerm;57663;51.436;5.978;2022-08-30T00:42:19;50.34;43.13;60.55;;
67314;Laerm;57663;51.436;5.978;2022-08-30T00:42:29;40.90;38.17;46.50;;
67314;Laerm;57663;51.436;5.978;2022-08-30T00:42:40;39.07;37.58;46.11;;
67314;Laerm;57663;51.436;5.978;2022-08-30T00:42:51;38.96;37.47;45.83;;
67314;Laerm;57663;51.436;5.978;2022-08-30T00:43:03;38.78;37.34;46.12;;
67314;Laerm;57663;51.436;5.978;2022-08-30T00:43:16;38.64;37.15;46.73;;
67314;Laerm;57663;51.436;5.978;2022-08-30T00:43:29;38.88;37.32;46.35;;
67314;Laerm;57663;51.436;5.978;2022-08-30T00:43:39;38.55;36.91;45.63;;
67314;Laerm;57663;51.436;5.978;2022-08-30T00:43:49;38.57;36.66;46.59;;
67314;Laerm;57663;51.436;5.978;2022-08-30T00:44:01;38.70;36.99;45.82;;
67314;Laerm;57663;51.436;5.978;2022-08-30T00:44:11;38.88;37.37;46.09;;
67314;Laerm;57663;51.436;5.978;2022-08-30T00:44:21;38.67;36.80;45.76;;
67314;Laerm;57663;51.436;5.978;2022-08-30T00:44:33;38.63;37.31;45.60;;
67314;Laerm;57663;51.436;5.978;2022-08-30T00:44:43;38.72;37.04;46.18;;
67314;Laerm;57663;51.436;5.978;2022-08-30T00:45:03;38.53;36.84;46.21;;
67314;Laerm;57663;51.436;5.978;2022-08-30T00:45:31;39.30;37.07;50.67;;
67314;Laerm;57663;51.436;5.978;2022-08-30T00:45:41;38.36;36.95;46.26;;
67314;Laerm;57663;51.436;5.978;2022-08-30T00:45:52;38.38;36.81;45.79;;
67314;Laerm;57663;51.436;5.978;2022-08-30T00:46:03;38.41;36.56;45.92;;
67314;Laerm;57663;51.436;5.978;2022-08-30T00:46:13;38.61;37.26;45.99;;
67314;Laerm;57663;51.436;5.978;2022-08-30T00:46:24;38.74;37.29;46.26;;
67314;Laerm;57663;51.436;5.978;2022-08-30T00:46:34;38.78;37.16;46.98;;
67314;Laerm;57663;51.436;5.978;2022-08-30T00:46:44;38.78;36.96;46.08;;
67314;Laerm;57663;51.436;5.978;2022-08-30T00:46:54;38.90;37.35;46.32;;
67314;Laerm;57663;51.436;5.978;2022-08-30T00:47:05;38.96;37.32;46.99;;
67314;Laerm;57663;51.436;5.978;2022-08-30T00:47:15;38.77;37.28;45.37;;
67314;Laerm;57663;51.436;5.978;2022-08-30T00:47:25;38.72;37.12;46.39;;
67314;Laerm;57663;51.436;5.978;2022-08-30T00:47:36;38.41;36.98;45.58;;
67314;Laerm;57663;51.436;5.978;2022-08-30T00:47:46;38.53;36.64;45.76;;
67314;Laerm;57663;51.436;5.978;2022-08-30T00:47:57;38.80;37.33;45.48;;
67314;Laerm;57663;51.436;5.978;2022-08-30T00:48:08;38.59;37.03;46.06;;
67314;Laerm;57663;51.436;5.978;2022-08-30T00:48:18;38.38;36.79;45.30;;
67314;Laerm;57663;51.436;5.978;2022-08-30T00:48:31;38.69;37.08;46.21;;
67314;Laerm;57663;51.436;5.978;2022-08-30T00:48:44;38.40;36.80;46.37;;
67314;Laerm;57663;51.436;5.978;2022-08-30T00:48:57;38.71;36.96;46.08;;
67314;Laerm;57663;51.436;5.978;2022-08-30T00:49:11;39.14;37.54;46.48;;
67314;Laerm;57663;51.436;5.978;2022-08-30T00:49:22;39.32;37.86;46.47;;
67314;Laerm;57663;51.436;5.978;2022-08-30T00:49:33;39.27;37.56;46.30;;
67314;Laerm;57663;51.436;5.978;2022-08-30T00:49:45;63.20;38.89;71.31;;
67314;Laerm;57663;51.436;5.978;2022-08-30T00:49:56;68.21;64.74;73.44;;
67314;Laerm;57663;51.436;5.978;2022-08-30T00:50:07;69.00;64.59;74.49;;
67314;Laerm;57663;51.436;5.978;2022-08-30T00:50:19;58.12;40.12;68.40;;
67314;Laerm;57663;51.436;5.978;2022-08-30T00:50:35;40.16;38.44;46.23;;
67314;Laerm;57663;51.436;5.978;2022-08-30T00:50:48;39.57;37.62;46.40;;
67314;Laerm;57663;51.436;5.978;2022-08-30T00:51:00;39.43;38.10;45.95;;
67314;Laerm;57663;51.436;5.978;2022-08-30T00:51:11;39.18;37.66;46.83;;
67314;Laerm;57663;51.436;5.978;2022-08-30T00:51:23;38.94;37.19;46.06;;
67314;Laerm;57663;51.436;5.978;2022-08-30T00:51:34;38.95;37.18;46.55;;
67314;Laerm;57663;51.436;5.978;2022-08-30T00:51:45;38.98;37.67;46.22;;
67314;Laerm;57663;51.436;5.978;2022-08-30T00:51:55;39.05;37.49;46.87;;
67314;Laerm;57663;51.436;5.978;2022-08-30T00:52:06;39.15;37.67;46.03;;
67314;Laerm;57663;51.436;5.978;2022-08-30T00:52:17;38.85;37.40;45.55;;
67314;Laerm;57663;51.436;5.978;2022-08-30T00:52:28;38.79;37.28;45.80;;
67314;Laerm;57663;51.436;5.978;2022-08-30T00:52:40;38.87;37.09;46.51;;
67314;Laerm;57663;51.436;5.978;2022-08-30T00:52:52;38.54;37.04;46.17;;
67314;Laerm;57663;51.436;5.978;2022-08-30T00:53:04;38.47;37.06;45.49;;
67314;Laerm;57663;51.436;5.978;2022-08-30T00:53:16;38.75;36.90;46.75;;
67314;Laerm;57663;51.436;5.978;2022-08-30T00:53:30;39.06;37.18;46.65;;
67314;Laerm;57663;51.436;5.978;2022-08-30T00:53:43;38.83;37.51;45.63;;
67314;Laerm;57663;51.436;5.978;2022-08-30T00:53:54;38.55;37.03;45.95;;
67314;Laerm;57663;51.436;5.978;2022-08-30T00:54:06;38.56;36.82;45.96;;
67314;Laerm;57663;51.436;5.978;2022-08-30T00:54:16;38.71;37.29;45.56;;
67314;Laerm;57663;51.436;5.978;2022-08-30T00:54:28;39.46;37.37;46.29;;
67314;Laerm;57663;51.436;5.978;2022-08-30T00:54:39;40.76;37.39;46.68;;
67314;Laerm;57663;51.436;5.978;2022-08-30T00:54:50;39.21;37.68;46.39;;
67314;Laerm;57663;51.436;5.978;2022-08-30T00:55:02;39.16;37.45;46.56;;
67314;Laerm;57663;51.436;5.978;2022-08-30T00:55:13;39.74;37.60;46.35;;
67314;Laerm;57663;51.436;5.978;2022-08-30T00:55:25;67.11;39.28;76.87;;
67314;Laerm;57663;51.436;5.978;2022-08-30T00:55:36;67.27;63.34;74.79;;
67314;Laerm;57663;51.436;5.978;2022-08-30T00:55:47;67.56;63.99;71.28;;
67314;Laerm;57663;51.436;5.978;2022-08-30T00:55:58;64.07;44.70;71.82;;
67314;Laerm;57663;51.436;5.978;2022-08-30T00:56:09;41.79;39.06;48.18;;
67314;Laerm;57663;51.436;5.978;2022-08-30T00:56:20;39.73;37.77;45.92;;
67314;Laerm;57663;51.436;5.978;2022-08-30T00:56:32;39.55;37.77;45.87;;
67314;Laerm;57663;51.436;5.978;2022-08-30T00:56:43;39.35;37.97;46.51;;
67314;Laerm;57663;51.436;5.978;2022-08-30T00:56:54;39.25;37.80;46.10;;
67314;Laerm;57663;51.436;5.978;2022-08-30T00:57:04;38.83;37.02;46.96;;
67314;Laerm;57663;51.436;5.978;2022-08-30T00:57:15;39.17;37.74;45.98;;
67314;Laerm;57663;51.436;5.978;2022-08-30T00:57:25;39.25;37.69;46.73;;
67314;Laerm;57663;51.436;5.978;2022-08-30T00:57:35;39.05;37.66;46.30;;
67314;Laerm;57663;51.436;5.978;2022-08-30T00:57:46;38.93;37.01;45.72;;
67314;Laerm;57663;51.436;5.978;2022-08-30T00:57:59;38.66;37.03;46.77;;
67314;Laerm;57663;51.436;5.978;2022-08-30T00:58:12;39.03;37.70;45.86;;
67314;Laerm;57663;51.436;5.978;2022-08-30T00:58:30;39.41;37.22;46.78;;
67314;Laerm;57663;51.436;5.978;2022-08-30T00:58:41;46.70;37.62;58.02;;
67314;Laerm;57663;51.436;5.978;2022-08-30T00:58:54;69.65;57.14;76.07;;
67314;Laerm;57663;51.436;5.978;2022-08-30T00:59:06;63.87;47.36;68.49;;
67314;Laerm;57663;51.436;5.978;2022-08-30T00:59:17;42.50;39.29;48.11;;
67314;Laerm;57663;51.436;5.978;2022-08-30T00:59:28;39.99;38.38;45.45;;
67314;Laerm;57663;51.436;5.978;2022-08-30T00:59:39;39.53;37.48;47.02;;
67314;Laerm;57663;51.436;5.978;2022-08-30T00:59:50;54.50;38.58;67.22;;
67314;Laerm;57663;51.436;5.978;2022-08-30T01:00:01;71.33;65.80;80.30;;
67314;Laerm;57663;51.436;5.978;2022-08-30T01:00:13;68.63;64.43;72.77;;
67314;Laerm;57663;51.436;5.978;2022-08-30T01:00:24;62.91;39.40;72.47;;
67314;Laerm;57663;51.436;5.978;2022-08-30T01:00:35;39.41;37.51;46.21;;
67314;Laerm;57663;51.436;5.978;2022-08-30T01:00:47;38.83;37.35;46.57;;
67314;Laerm;57663;51.436;5.978;2022-08-30T01:00:58;38.76;37.28;46.10;;
67314;Laerm;57663;51.436;5.978;2022-08-30T01:01:09;38.86;37.20;45.52;;
67314;Laerm;57663;51.436;5.978;2022-08-30T01:01:20;38.86;37.43;46.21;;
67314;Laerm;57663;51.436;5.978;2022-08-30T01:01:30;38.86;37.03;45.60;;
67314;Laerm;57663;51.436;5.978;2022-08-30T01:01:42;39.14;37.64;46.73;;
67314;Laerm;57663;51.436;5.978;2022-08-30T01:01:52;39.43;37.65;46.20;;
67314;Laerm;57663;51.436;5.978;2022-08-30T01:02:02;39.11;37.43;45.15;;
67314;Laerm;57663;51.436;5.978;2022-08-30T01:02:13;45.12;38.27;55.00;;
67314;Laerm;57663;51.436;5.978;2022-08-30T01:02:25;69.15;54.26;74.32;;
67314;Laerm;57663;51.436;5.978;2022-08-30T01:02:40;70.18;55.86;75.00;;